AFL2130 UUEE-LTFM
Flight info
| Callsign | AFL2130 |
|---|---|
| Flight time | N/A |
| Altitude | 33000 |
| Route | K0793F330 TOGMO3J TOGMO M56 ABAGI B105 NIMTA/K0795F320 B105 NATIT DCT MOLED N50 LIDUS/K0810F340 G242 ZG DCT ITAKA DCT OBBUD DCT AMKOL DCT GOTIK DCT MEMZA DCT VENFO DCT BINOL/K0819F360 G487 ODIRA/N0441F360 UN743 GAKSU UT310 NUGBA NUGBA1M |
| Aircraft | A321/M-SADIE2E3FGHJ1RWY/LB1U1 |
Departure
| Time | N/A |
|---|---|
| Airport | Sheremetyevo International Airport (UUEE) |
Arrival
| Time | 2026-02-18 12:32 |
|---|---|
| Airport | İstanbul Airport (LTFM) |
| Time | Latitude | Longitude | Altitude | Speed | Heading |
|---|---|---|---|---|---|
| 2026-02-18 11:17 | 42.71079 | 36.91929 | 33529 ft | 402 kts | 247° |
| 2026-02-18 11:18 | 42.69820 | 36.84465 | 33529 ft | 406 kts | 252° |
| 2026-02-18 11:18 | 42.68660 | 36.76944 | 33518 ft | 406 kts | 252° |
| 2026-02-18 11:19 | 42.67498 | 36.69421 | 33515 ft | 407 kts | 252° |
| 2026-02-18 11:19 | 42.66329 | 36.61880 | 33504 ft | 408 kts | 252° |
| 2026-02-18 11:20 | 42.65159 | 36.54338 | 33511 ft | 409 kts | 252° |
| 2026-02-18 11:20 | 42.63979 | 36.46809 | 33492 ft | 411 kts | 252° |
| 2026-02-18 11:21 | 42.62781 | 36.39234 | 33484 ft | 413 kts | 252° |
| 2026-02-18 11:21 | 42.60968 | 36.27749 | 33490 ft | 416 kts | 252° |
| 2026-02-18 11:22 | 42.59751 | 36.20078 | 33483 ft | 416 kts | 252° |
| 2026-02-18 11:22 | 42.58525 | 36.12400 | 33486 ft | 416 kts | 252° |
| 2026-02-18 11:23 | 42.57287 | 36.04723 | 33489 ft | 417 kts | 252° |
| 2026-02-18 11:23 | 42.56043 | 35.97043 | 33494 ft | 418 kts | 252° |
| 2026-02-18 11:24 | 42.54795 | 35.89327 | 33479 ft | 419 kts | 252° |
| 2026-02-18 11:24 | 42.53538 | 35.81605 | 33472 ft | 420 kts | 252° |
| 2026-02-18 11:25 | 42.51639 | 35.69966 | 33467 ft | 423 kts | 252° |
| 2026-02-18 11:26 | 42.50353 | 35.62194 | 33490 ft | 422 kts | 251° |
| 2026-02-18 11:26 | 42.49078 | 35.54492 | 33487 ft | 422 kts | 252° |
| 2026-02-18 11:27 | 42.47799 | 35.46740 | 33487 ft | 422 kts | 251° |
| 2026-02-18 11:27 | 42.46508 | 35.38971 | 33478 ft | 423 kts | 252° |
| 2026-02-18 11:28 | 42.45206 | 35.31181 | 33466 ft | 425 kts | 252° |
| 2026-02-18 11:28 | 42.43889 | 35.23368 | 33464 ft | 426 kts | 251° |
| 2026-02-18 11:29 | 42.42555 | 35.15552 | 33483 ft | 425 kts | 251° |
| 2026-02-18 11:29 | 42.40567 | 35.03849 | 33482 ft | 426 kts | 251° |
| 2026-02-18 11:30 | 42.39237 | 34.96045 | 33481 ft | 426 kts | 251° |
| 2026-02-18 11:30 | 42.37900 | 34.88245 | 33485 ft | 426 kts | 251° |
| 2026-02-18 11:31 | 42.36549 | 34.80432 | 33512 ft | 427 kts | 251° |
| 2026-02-18 11:31 | 42.35187 | 34.72594 | 33504 ft | 428 kts | 251° |
| 2026-02-18 11:32 | 42.33826 | 34.64760 | 33503 ft | 428 kts | 251° |
| 2026-02-18 11:32 | 42.32461 | 34.56921 | 33503 ft | 428 kts | 250° |
| 2026-02-18 11:33 | 42.30392 | 34.45166 | 33502 ft | 429 kts | 250° |
| 2026-02-18 11:34 | 42.29003 | 34.37325 | 33509 ft | 429 kts | 251° |
| 2026-02-18 11:34 | 42.27617 | 34.29531 | 33513 ft | 430 kts | 251° |
| 2026-02-18 11:35 | 42.26208 | 34.21656 | 33500 ft | 433 kts | 251° |
| 2026-02-18 11:35 | 42.24788 | 34.13748 | 33514 ft | 434 kts | 251° |
| 2026-02-18 11:36 | 42.23362 | 34.05820 | 33514 ft | 435 kts | 251° |
| 2026-02-18 11:36 | 42.21921 | 33.97869 | 33540 ft | 436 kts | 251° |
| 2026-02-18 11:37 | 42.20476 | 33.89935 | 33540 ft | 436 kts | 251° |
| 2026-02-18 11:37 | 42.18317 | 33.78026 | 33538 ft | 437 kts | 252° |
| 2026-02-18 11:38 | 42.17058 | 33.69998 | 33561 ft | 438 kts | 253° |
| 2026-02-18 11:38 | 42.15851 | 33.61949 | 33546 ft | 438 kts | 253° |
| 2026-02-18 11:39 | 42.14607 | 33.53974 | 33566 ft | 438 kts | 253° |
| 2026-02-18 11:39 | 42.13322 | 33.45959 | 33562 ft | 437 kts | 253° |
| 2026-02-18 11:40 | 42.12026 | 33.37947 | 33558 ft | 438 kts | 252° |
| 2026-02-18 11:40 | 42.10729 | 33.29940 | 33566 ft | 438 kts | 253° |
| 2026-02-18 11:41 | 42.08786 | 33.17931 | 33583 ft | 438 kts | 253° |
| 2026-02-18 11:42 | 42.07484 | 33.09922 | 33572 ft | 438 kts | 253° |
| 2026-02-18 11:42 | 42.06113 | 33.01945 | 33575 ft | 437 kts | 252° |
| 2026-02-18 11:43 | 42.04584 | 32.94036 | 33570 ft | 437 kts | 251° |
| 2026-02-18 11:43 | 42.03034 | 32.86141 | 33578 ft | 437 kts | 251° |
| 2026-02-18 11:44 | 42.01517 | 32.78279 | 33580 ft | 437 kts | 251° |
| 2026-02-18 11:44 | 42.00003 | 32.70362 | 33607 ft | 436 kts | 251° |
| 2026-02-18 11:45 | 41.98483 | 32.62464 | 33620 ft | 436 kts | 252° |
| 2026-02-18 11:45 | 41.96199 | 32.50681 | 33615 ft | 436 kts | 252° |
| 2026-02-18 11:46 | 41.94660 | 32.42806 | 33611 ft | 436 kts | 251° |
| 2026-02-18 11:46 | 41.93124 | 32.34932 | 33609 ft | 436 kts | 252° |
| 2026-02-18 11:47 | 41.91830 | 32.28402 | 33617 ft | 435 kts | 251° |
| 2026-02-18 11:47 | 41.90290 | 32.20612 | 33612 ft | 435 kts | 251° |
| 2026-02-18 11:48 | 41.88704 | 32.12780 | 33619 ft | 434 kts | 251° |
| 2026-02-18 11:48 | 41.87097 | 32.04964 | 33617 ft | 434 kts | 251° |
| 2026-02-18 11:49 | 41.84705 | 31.93350 | 33618 ft | 421 kts | 251° |
| 2026-02-18 11:50 | 41.83151 | 31.85816 | 33622 ft | 418 kts | 251° |
| 2026-02-18 11:50 | 41.81593 | 31.78329 | 33626 ft | 417 kts | 251° |
| 2026-02-18 11:51 | 41.80023 | 31.70841 | 33626 ft | 418 kts | 251° |
| 2026-02-18 11:51 | 41.78456 | 31.63344 | 33630 ft | 418 kts | 251° |
| 2026-02-18 11:52 | 41.76882 | 31.55855 | 33655 ft | 418 kts | 252° |
| 2026-02-18 11:52 | 41.75303 | 31.48369 | 33655 ft | 417 kts | 252° |
| 2026-02-18 11:53 | 41.73720 | 31.40903 | 33659 ft | 416 kts | 251° |
| 2026-02-18 11:53 | 41.71356 | 31.29736 | 33633 ft | 416 kts | 252° |
| 2026-02-18 11:54 | 41.70559 | 31.25996 | 33303 ft | 421 kts | 251° |
| 2026-02-18 11:54 | 41.69747 | 31.22215 | 33037 ft | 424 kts | 251° |
| 2026-02-18 11:54 | 41.68926 | 31.18428 | 32769 ft | 425 kts | 251° |
| 2026-02-18 11:54 | 41.68104 | 31.14631 | 32493 ft | 423 kts | 251° |
| 2026-02-18 11:55 | 41.67309 | 31.10852 | 32243 ft | 422 kts | 251° |
| 2026-02-18 11:55 | 41.66572 | 31.07062 | 31988 ft | 421 kts | 253° |
| 2026-02-18 11:55 | 41.65872 | 31.03261 | 31741 ft | 422 kts | 253° |
| 2026-02-18 11:55 | 41.65193 | 30.99500 | 31487 ft | 421 kts | 254° |
| 2026-02-18 11:56 | 41.64505 | 30.95710 | 31239 ft | 418 kts | 252° |
| 2026-02-18 11:56 | 41.63798 | 30.91887 | 30979 ft | 417 kts | 252° |
| 2026-02-18 11:56 | 41.63103 | 30.88187 | 30669 ft | 414 kts | 252° |
| 2026-02-18 11:56 | 41.62395 | 30.84464 | 30135 ft | 412 kts | 251° |
| 2026-02-18 11:57 | 41.61682 | 30.80767 | 29581 ft | 410 kts | 250° |
| 2026-02-18 11:57 | 41.60263 | 30.73460 | 28490 ft | 402 kts | 252° |
| 2026-02-18 11:57 | 41.59584 | 30.69865 | 27966 ft | 398 kts | 252° |
| 2026-02-18 11:58 | 41.59353 | 30.61047 | 26821 ft | 398 kts | 269° |
| 2026-02-18 11:58 | 41.59587 | 30.55049 | 26071 ft | 392 kts | 269° |
| 2026-02-18 11:59 | 41.59633 | 30.53838 | 25916 ft | 391 kts | 269° |
| 2026-02-18 11:59 | 41.59987 | 30.43928 | 24662 ft | 380 kts | 270° |
| 2026-02-18 12:00 | 41.60203 | 30.37717 | 23875 ft | 375 kts | 269° |
| 2026-02-18 12:00 | 41.61732 | 30.27399 | 22495 ft | 375 kts | 296° |
| 2026-02-18 12:01 | 41.63205 | 30.24510 | 22064 ft | 379 kts | 309° |
| 2026-02-18 12:01 | 41.66829 | 30.19458 | 21214 ft | 375 kts | 309° |
| 2026-02-18 12:01 | 41.68646 | 30.16964 | 20791 ft | 373 kts | 309° |
| 2026-02-18 12:02 | 41.70451 | 30.14472 | 20315 ft | 372 kts | 310° |
| 2026-02-18 12:02 | 41.72237 | 30.11995 | 19855 ft | 368 kts | 309° |
| 2026-02-18 12:02 | 41.73662 | 30.09226 | 19399 ft | 357 kts | 287° |
| 2026-02-18 12:02 | 41.74282 | 30.06111 | 18978 ft | 342 kts | 269° |
| 2026-02-18 12:03 | 41.74113 | 30.03020 | 18566 ft | 329 kts | 252° |
| 2026-02-18 12:03 | 41.73266 | 30.00221 | 18162 ft | 323 kts | 234° |
| 2026-02-18 12:03 | 41.71915 | 29.97858 | 17740 ft | 320 kts | 229° |
| 2026-02-18 12:03 | 41.70492 | 29.95559 | 17356 ft | 320 kts | 229° |
| 2026-02-18 12:04 | 41.69082 | 29.93280 | 16968 ft | 317 kts | 229° |
| 2026-02-18 12:04 | 41.67685 | 29.91013 | 16621 ft | 313 kts | 229° |
| 2026-02-18 12:04 | 41.66313 | 29.88780 | 16240 ft | 309 kts | 229° |
| 2026-02-18 12:04 | 41.64962 | 29.86589 | 15942 ft | 310 kts | 229° |
| 2026-02-18 12:05 | 41.63607 | 29.84403 | 15733 ft | 302 kts | 230° |
| 2026-02-18 12:05 | 41.61106 | 29.80052 | 15227 ft | 290 kts | 235° |
| 2026-02-18 12:05 | 41.60010 | 29.77818 | 14967 ft | 284 kts | 235° |
| 2026-02-18 12:06 | 41.58929 | 29.75631 | 14712 ft | 280 kts | 235° |
| 2026-02-18 12:06 | 41.57851 | 29.73462 | 14474 ft | 280 kts | 235° |
| 2026-02-18 12:06 | 41.56780 | 29.71304 | 14222 ft | 279 kts | 235° |
| 2026-02-18 12:06 | 41.55693 | 29.69124 | 13976 ft | 285 kts | 235° |
| 2026-02-18 12:07 | 41.54608 | 29.66950 | 13730 ft | 279 kts | 236° |
| 2026-02-18 12:07 | 41.53539 | 29.64811 | 13494 ft | 275 kts | 236° |
| 2026-02-18 12:07 | 41.52488 | 29.62715 | 13208 ft | 269 kts | 236° |
| 2026-02-18 12:07 | 41.51442 | 29.60624 | 12933 ft | 273 kts | 236° |
| 2026-02-18 12:08 | 41.49352 | 29.56436 | 12395 ft | 272 kts | 236° |
| 2026-02-18 12:08 | 41.48309 | 29.54345 | 12127 ft | 269 kts | 236° |
| 2026-02-18 12:08 | 41.47294 | 29.52319 | 11867 ft | 264 kts | 236° |
| 2026-02-18 12:09 | 41.46284 | 29.50304 | 11624 ft | 263 kts | 236° |
| 2026-02-18 12:09 | 41.44285 | 29.46318 | 11112 ft | 260 kts | 236° |
| 2026-02-18 12:09 | 41.43280 | 29.44316 | 10859 ft | 259 kts | 236° |
| 2026-02-18 12:10 | 41.42276 | 29.42318 | 10609 ft | 260 kts | 236° |
| 2026-02-18 12:10 | 41.41509 | 29.40789 | 10418 ft | 260 kts | 236° |
| 2026-02-18 12:10 | 41.40479 | 29.38742 | 10164 ft | 258 kts | 236° |
| 2026-02-18 12:10 | 41.39480 | 29.36763 | 9921 ft | 257 kts | 236° |
| 2026-02-18 12:11 | 41.38500 | 29.34824 | 9940 ft | 247 kts | 236° |
| 2026-02-18 12:11 | 41.37572 | 29.32983 | 9964 ft | 236 kts | 236° |
| 2026-02-18 12:11 | 41.36544 | 29.31297 | 9974 ft | 235 kts | 223° |
| 2026-02-18 12:11 | 41.35167 | 29.30123 | 9962 ft | 238 kts | 206° |
| 2026-02-18 12:12 | 41.33542 | 29.29614 | 9823 ft | 244 kts | 187° |
| 2026-02-18 12:12 | 41.31831 | 29.29624 | 9700 ft | 246 kts | 185° |
| 2026-02-18 12:12 | 41.30126 | 29.29637 | 9569 ft | 245 kts | 186° |
| 2026-02-18 12:12 | 41.28425 | 29.29641 | 9436 ft | 244 kts | 186° |
| 2026-02-18 12:13 | 41.26721 | 29.29638 | 9299 ft | 248 kts | 186° |
| 2026-02-18 12:13 | 41.23258 | 29.29629 | 9068 ft | 249 kts | 186° |
| 2026-02-18 12:13 | 41.21526 | 29.29657 | 8951 ft | 249 kts | 184° |
| 2026-02-18 12:14 | 41.19798 | 29.29750 | 8812 ft | 248 kts | 183° |
| 2026-02-18 12:14 | 41.18072 | 29.29867 | 8691 ft | 248 kts | 183° |
| 2026-02-18 12:14 | 41.16352 | 29.29986 | 8568 ft | 247 kts | 183° |
| 2026-02-18 12:14 | 41.14638 | 29.30097 | 8438 ft | 246 kts | 184° |
| 2026-02-18 12:15 | 41.12950 | 29.30205 | 8313 ft | 240 kts | 184° |
| 2026-02-18 12:15 | 41.11307 | 29.30310 | 8196 ft | 239 kts | 184° |
| 2026-02-18 12:15 | 41.09642 | 29.30416 | 8079 ft | 239 kts | 184° |
| 2026-02-18 12:15 | 41.07981 | 29.30520 | 7939 ft | 239 kts | 184° |
| 2026-02-18 12:16 | 41.06317 | 29.30624 | 7841 ft | 239 kts | 184° |
| 2026-02-18 12:16 | 41.04656 | 29.30728 | 7716 ft | 239 kts | 185° |
| 2026-02-18 12:16 | 41.02997 | 29.30828 | 7596 ft | 239 kts | 185° |
| 2026-02-18 12:16 | 41.01339 | 29.30926 | 7478 ft | 239 kts | 185° |
| 2026-02-18 12:17 | 40.99697 | 29.31018 | 7355 ft | 238 kts | 185° |
| 2026-02-18 12:17 | 40.96384 | 29.31172 | 7106 ft | 235 kts | 192° |
| 2026-02-18 12:17 | 40.94867 | 29.30580 | 6979 ft | 224 kts | 215° |
| 2026-02-18 12:18 | 40.93741 | 29.29231 | 6838 ft | 218 kts | 238° |
| 2026-02-18 12:18 | 40.93169 | 29.27396 | 6725 ft | 217 kts | 259° |
| 2026-02-18 12:18 | 40.93015 | 29.25406 | 6606 ft | 218 kts | 263° |
| 2026-02-18 12:18 | 40.92867 | 29.23406 | 6479 ft | 219 kts | 263° |
| 2026-02-18 12:19 | 40.92716 | 29.21401 | 6363 ft | 219 kts | 262° |
| 2026-02-18 12:19 | 40.92565 | 29.19394 | 6237 ft | 219 kts | 263° |
| 2026-02-18 12:19 | 40.92416 | 29.17392 | 6105 ft | 219 kts | 263° |
| 2026-02-18 12:19 | 40.92264 | 29.15389 | 5968 ft | 219 kts | 262° |
| 2026-02-18 12:20 | 40.92107 | 29.13383 | 5832 ft | 219 kts | 262° |
| 2026-02-18 12:20 | 40.91950 | 29.11381 | 5699 ft | 219 kts | 262° |
| 2026-02-18 12:20 | 40.91795 | 29.09374 | 5565 ft | 220 kts | 263° |
| 2026-02-18 12:20 | 40.91643 | 29.07383 | 5429 ft | 214 kts | 263° |
| 2026-02-18 12:21 | 40.91496 | 29.05447 | 5293 ft | 211 kts | 263° |
| 2026-02-18 12:21 | 40.91201 | 29.01625 | 5067 ft | 211 kts | 263° |
| 2026-02-18 12:21 | 40.91256 | 28.99683 | 5003 ft | 213 kts | 274° |
| 2026-02-18 12:22 | 40.91432 | 28.97737 | 5008 ft | 213 kts | 274° |
| 2026-02-18 12:22 | 40.91601 | 28.95792 | 5004 ft | 213 kts | 274° |
| 2026-02-18 12:22 | 40.91771 | 28.93833 | 5005 ft | 215 kts | 275° |
| 2026-02-18 12:22 | 40.91943 | 28.91861 | 5006 ft | 216 kts | 276° |
| 2026-02-18 12:23 | 40.92115 | 28.89888 | 5008 ft | 216 kts | 275° |
| 2026-02-18 12:23 | 40.92290 | 28.87922 | 4834 ft | 215 kts | 276° |
| 2026-02-18 12:23 | 40.92464 | 28.85958 | 4506 ft | 215 kts | 276° |
| 2026-02-18 12:23 | 40.92634 | 28.83997 | 4191 ft | 214 kts | 277° |
| 2026-02-18 12:24 | 40.92804 | 28.82059 | 4015 ft | 212 kts | 279° |
| 2026-02-18 12:24 | 40.93256 | 28.80227 | 4003 ft | 211 kts | 299° |
| 2026-02-18 12:24 | 40.94187 | 28.78732 | 4033 ft | 212 kts | 318° |
| 2026-02-18 12:24 | 40.95428 | 28.77675 | 4002 ft | 209 kts | 327° |
| 2026-02-18 12:25 | 40.96631 | 28.76749 | 4002 ft | 205 kts | 330° |
| 2026-02-18 12:25 | 40.99412 | 28.76150 | 4005 ft | 211 kts | 355° |
| 2026-02-18 12:25 | 41.00862 | 28.76142 | 3998 ft | 206 kts | 355° |
| 2026-02-18 12:26 | 41.02275 | 28.76121 | 4002 ft | 202 kts | 355° |
| 2026-02-18 12:26 | 41.03679 | 28.76097 | 4007 ft | 201 kts | 355° |
| 2026-02-18 12:26 | 41.05079 | 28.76071 | 4012 ft | 201 kts | 355° |
| 2026-02-18 12:26 | 41.06478 | 28.76044 | 4007 ft | 201 kts | 355° |
| 2026-02-18 12:27 | 41.07834 | 28.76020 | 4008 ft | 195 kts | 355° |
| 2026-02-18 12:27 | 41.09172 | 28.75995 | 3844 ft | 190 kts | 354° |
| 2026-02-18 12:27 | 41.10480 | 28.75969 | 3611 ft | 187 kts | 354° |
| 2026-02-18 12:27 | 41.11769 | 28.75944 | 3366 ft | 184 kts | 354° |
| 2026-02-18 12:28 | 41.13037 | 28.75921 | 3110 ft | 181 kts | 354° |
| 2026-02-18 12:28 | 41.14270 | 28.75898 | 2867 ft | 174 kts | 354° |
| 2026-02-18 12:28 | 41.15455 | 28.75877 | 2608 ft | 167 kts | 354° |
| 2026-02-18 12:28 | 41.16590 | 28.75855 | 2393 ft | 160 kts | 354° |
| 2026-02-18 12:29 | 41.17703 | 28.75833 | 2165 ft | 160 kts | 354° |
| 2026-02-18 12:29 | 41.19774 | 28.75794 | 1730 ft | 139 kts | 355° |
| 2026-02-18 12:29 | 41.20728 | 28.75775 | 1544 ft | 137 kts | 355° |
| 2026-02-18 12:30 | 41.21673 | 28.75757 | 1342 ft | 136 kts | 354° |
| 2026-02-18 12:30 | 41.22608 | 28.75739 | 1133 ft | 134 kts | 353° |
| 2026-02-18 12:30 | 41.23529 | 28.75723 | 916 ft | 130 kts | 352° |
| 2026-02-18 12:30 | 41.24438 | 28.75705 | 746 ft | 132 kts | 351° |
| 2026-02-18 12:31 | 41.25360 | 28.75684 | 538 ft | 132 kts | 351° |
| 2026-02-18 12:31 | 41.26276 | 28.75669 | 391 ft | 132 kts | 353° |
| 2026-02-18 12:31 | 41.27151 | 28.75636 | 333 ft | 111 kts | 357° |
| 2026-02-18 12:31 | 41.27740 | 28.75632 | 330 ft | 59 kts | 1° |
| 2026-02-18 12:32 | 41.27981 | 28.75605 | 330 ft | 19 kts | 339° |
| 2026-02-18 12:32 | 41.28089 | 28.75535 | 333 ft | 11 kts | 329° |
| 2026-02-18 12:32 | 41.28152 | 28.75481 | 331 ft | 11 kts | 315° |
| 2026-02-18 12:32 | 41.28157 | 28.75389 | 333 ft | 11 kts | 241° |
| 2026-02-18 12:33 | 41.28098 | 28.75349 | 333 ft | 9 kts | 183° |
| 2026-02-18 12:33 | 41.27997 | 28.75350 | 334 ft | 5 kts | 179° |
| 2026-02-18 12:33 | 41.27967 | 28.75351 | 333 ft | 5 kts | 179° |
| 2026-02-18 12:34 | 41.27918 | 28.75351 | 332 ft | 8 kts | 179° |
| 2026-02-18 12:34 | 41.27850 | 28.75352 | 334 ft | 11 kts | 180° |
| 2026-02-18 12:34 | 41.27764 | 28.75355 | 331 ft | 14 kts | 178° |
| 2026-02-18 12:34 | 41.27657 | 28.75359 | 332 ft | 17 kts | 179° |
| 2026-02-18 12:35 | 41.27531 | 28.75361 | 331 ft | 20 kts | 179° |
| 2026-02-18 12:35 | 41.27384 | 28.75364 | 334 ft | 17 kts | 179° |
| 2026-02-18 12:35 | 41.27333 | 28.75277 | 330 ft | 17 kts | 268° |
| 2026-02-18 12:35 | 41.27331 | 28.75101 | 334 ft | 20 kts | 269° |
| 2026-02-18 12:36 | 41.27329 | 28.74921 | 334 ft | 19 kts | 269° |
| 2026-02-18 12:36 | 41.27327 | 28.74743 | 334 ft | 19 kts | 269° |
| 2026-02-18 12:36 | 41.27305 | 28.74612 | 332 ft | 13 kts | 218° |
| 2026-02-18 12:36 | 41.27229 | 28.74601 | 330 ft | 10 kts | 179° |
| 2026-02-18 12:37 | 41.27163 | 28.74603 | 332 ft | 9 kts | 179° |
| 2026-02-18 12:37 | 41.27025 | 28.74606 | 331 ft | 11 kts | 179° |
| 2026-02-18 12:37 | 41.26944 | 28.74607 | 330 ft | 12 kts | 179° |
| 2026-02-18 12:38 | 41.26878 | 28.74549 | 331 ft | 12 kts | 217° |
| 2026-02-18 12:38 | 41.26790 | 28.74539 | 332 ft | 13 kts | 179° |
| 2026-02-18 12:38 | 41.26696 | 28.74540 | 334 ft | 14 kts | 180° |
| 2026-02-18 12:38 | 41.26597 | 28.74542 | 329 ft | 14 kts | 189° |
| 2026-02-18 12:39 | 41.26571 | 28.74493 | 330 ft | 7 kts | 247° |
| 2026-02-18 12:39 | 41.26500 | 28.74473 | 333 ft | 9 kts | 179° |
| 2026-02-18 12:39 | 41.26434 | 28.74485 | 331 ft | 7 kts | 164° |
| 2026-02-18 12:39 | 41.26390 | 28.74480 | 332 ft | 6 kts | 199° |
| 2026-02-18 12:40 | 41.26362 | 28.74467 | 334 ft | 2 kts | 198° |
| 2026-02-18 12:40 | 41.26359 | 28.74466 | 334 ft | 0 kts | 198° |